createdAt,value
2019-05-17T00:01:40.224Z,9.07
2019-05-17T00:04:07.340Z,9.77
2019-05-17T00:06:34.030Z,8.60
2019-05-17T00:09:00.958Z,9.90
2019-05-17T00:11:27.887Z,9.87
2019-05-17T00:13:54.507Z,8.60
2019-05-17T00:16:21.213Z,10.37
2019-05-17T00:18:47.753Z,9.40
2019-05-17T00:21:16.896Z,9.67
2019-05-17T00:23:43.406Z,10.73
2019-05-17T00:26:10.047Z,10.27
2019-05-17T00:28:37.500Z,11.30
2019-05-17T00:31:06.635Z,9.07
2019-05-17T00:33:33.421Z,9.63
2019-05-17T00:36:00.360Z,10.03
2019-05-17T00:38:27.517Z,9.33
2019-05-17T00:40:56.353Z,10.20
2019-05-17T00:43:22.860Z,10.07
2019-05-17T00:45:49.437Z,8.90
2019-05-17T00:48:17.116Z,10.30
2019-05-17T00:50:44.242Z,9.53
2019-05-17T00:53:10.881Z,9.83
2019-05-17T00:55:37.570Z,9.63
2019-05-17T00:58:06.437Z,9.60
2019-05-17T01:00:33.038Z,9.63
2019-05-17T01:02:59.674Z,9.70
2019-05-17T01:05:27.472Z,10.53
2019-05-17T01:07:54.349Z,11.10
2019-05-17T01:10:21.023Z,9.20
2019-05-17T01:12:48.232Z,10.83
2019-05-17T01:15:16.793Z,9.30
2019-05-17T01:17:47.319Z,10.83
2019-05-17T01:20:14.505Z,9.83
2019-05-17T01:22:41.127Z,11.60
2019-05-17T01:25:07.826Z,10.10
2019-05-17T01:27:34.564Z,11.40
2019-05-17T01:30:01.578Z,13.00
2019-05-17T01:32:28.437Z,11.57
2019-05-17T01:34:56.459Z,10.23
2019-05-17T01:37:23.407Z,12.53
2019-05-17T01:39:50.144Z,11.83
2019-05-17T01:42:17.296Z,12.23
2019-05-17T01:44:44.027Z,11.60
2019-05-17T01:47:24.411Z,13.23
2019-05-17T01:49:52.113Z,13.43
2019-05-17T01:52:18.867Z,16.37
2019-05-17T01:54:46.964Z,16.33
2019-05-17T01:57:16.834Z,14.23
2019-05-17T01:59:43.603Z,16.43
2019-05-17T02:02:16.416Z,17.87
2019-05-17T02:04:43.210Z,20.00
2019-05-17T02:07:10.135Z,22.00
2019-05-17T02:09:40.643Z,22.83
2019-05-17T02:12:06.761Z,22.67
2019-05-17T02:14:33.483Z,22.20
2019-05-17T02:17:00.153Z,22.30
2019-05-17T02:19:27.646Z,22.53
2019-05-17T02:21:56.872Z,23.93
2019-05-17T02:24:22.889Z,23.83
2019-05-17T02:26:49.585Z,25.37
2019-05-17T02:29:16.426Z,23.37
2019-05-17T02:31:43.823Z,25.90
2019-05-17T02:34:13.905Z,24.70
2019-05-17T02:36:43.153Z,24.83
2019-05-17T02:39:12.903Z,25.40
2019-05-17T02:41:42.777Z,24.67
2019-05-17T02:44:07.973Z,23.37
2019-05-17T02:46:35.726Z,24.47
2019-05-17T02:49:03.550Z,26.70
2019-05-17T02:51:32.414Z,27.57
2019-05-17T02:53:59.137Z,27.27
2019-05-17T02:56:25.903Z,27.77
2019-05-17T02:58:53.347Z,29.37
2019-05-17T03:01:23.081Z,30.33
2019-05-17T03:03:52.620Z,26.87
2019-05-17T03:06:17.789Z,28.53
2019-05-17T03:08:44.543Z,30.13
2019-05-17T03:11:13.566Z,29.70
2019-05-17T03:13:43.207Z,30.57
2019-05-17T03:16:08.691Z,30.27
2019-05-17T03:18:35.325Z,33.47
2019-05-17T03:21:03.714Z,33.57
2019-05-17T03:23:32.851Z,32.60
2019-05-17T03:25:59.498Z,33.50
2019-05-17T03:28:26.133Z,35.43
2019-05-17T03:30:56.252Z,31.70
2019-05-17T03:33:26.714Z,34.23
2019-05-17T03:35:56.513Z,33.67
2019-05-17T03:38:22.792Z,34.13
2019-05-17T03:41:11.914Z,36.33
2019-05-17T03:43:18.882Z,34.50
2019-05-17T03:45:45.522Z,35.93
2019-05-17T03:48:12.923Z,36.23
2019-05-17T03:50:39.959Z,37.93
2019-05-17T03:53:06.665Z,36.00
2019-05-17T03:55:33.589Z,35.77
2019-05-17T03:58:03.276Z,36.53
2019-05-17T04:00:29.010Z,37.37
2019-05-17T04:02:55.742Z,36.53
2019-05-17T04:05:22.853Z,38.90
2019-05-17T04:07:49.713Z,37.43
2019-05-17T04:10:16.692Z,37.00
2019-05-17T04:12:52.702Z,38.03
2019-05-17T04:15:18.471Z,39.47
2019-05-17T04:17:45.542Z,41.10
2019-05-17T04:20:13.707Z,42.43
2019-05-17T04:22:43.982Z,41.87
2019-05-17T04:25:13.417Z,41.33
2019-05-17T04:27:43.151Z,44.07
2019-05-17T04:30:07.993Z,43.80
2019-05-17T04:32:34.937Z,40.93
2019-05-17T04:35:03.766Z,41.27
2019-05-17T04:37:33.917Z,45.13
2019-05-17T04:40:03.593Z,41.77
2019-05-17T04:42:29.184Z,43.67
2019-05-17T04:44:55.796Z,44.50
2019-05-17T04:47:23.137Z,42.93
2019-05-17T04:49:53.336Z,45.67
2019-05-17T04:52:18.569Z,46.13
2019-05-17T04:54:45.283Z,46.97
2019-05-17T04:57:13.138Z,46.63
2019-05-17T04:59:43.167Z,46.03
2019-05-17T05:02:13.178Z,43.17
2019-05-17T05:04:43.199Z,52.03
2019-05-17T05:07:08.577Z,52.70
2019-05-17T05:09:36.341Z,51.37
2019-05-17T05:12:06.240Z,49.90
2019-05-17T05:14:32.818Z,49.07
2019-05-17T05:17:02.387Z,52.13
2019-05-17T05:19:28.537Z,48.50
2019-05-17T05:21:55.363Z,49.67
2019-05-17T05:24:22.333Z,51.37
2019-05-17T05:26:49.260Z,47.23
2019-05-17T05:29:16.025Z,49.30
2019-05-17T05:31:42.848Z,49.07
2019-05-17T05:34:12.168Z,47.57
2019-05-17T05:36:38.262Z,49.17
2019-05-17T05:39:06.140Z,48.40
2019-05-17T05:41:32.988Z,48.50
2019-05-17T05:44:01.889Z,49.13
2019-05-17T05:46:28.312Z,45.73
2019-05-17T05:48:54.938Z,48.10
2019-05-17T05:51:22.796Z,51.37
2019-05-17T05:53:49.432Z,47.70
2019-05-17T05:56:16.096Z,44.50
2019-05-17T05:58:42.942Z,46.57
2019-05-17T06:01:12.552Z,47.50
2019-05-17T06:03:38.333Z,46.87
2019-05-17T06:06:04.949Z,44.27
2019-05-17T06:08:32.301Z,50.63
2019-05-17T06:11:01.942Z,43.37
2019-05-17T06:13:27.762Z,45.00
2019-05-17T06:15:59.634Z,47.00
2019-05-17T06:18:26.499Z,45.30
2019-05-17T06:20:53.160Z,45.13
2019-05-17T06:23:23.486Z,48.20
2019-05-17T06:25:52.156Z,46.20
2019-05-17T06:28:22.319Z,45.43
2019-05-17T06:30:51.965Z,45.27
2019-05-17T06:33:27.997Z,49.10
2019-05-17T06:35:49.686Z,45.27
2019-05-17T06:38:16.392Z,43.37
2019-05-17T06:40:43.166Z,44.67
2019-05-17T06:43:12.913Z,43.87
2019-05-17T06:45:38.776Z,44.20
2019-05-17T06:48:06.625Z,46.83
2019-05-17T06:50:33.439Z,44.57
2019-05-17T06:53:02.927Z,46.37
2019-05-17T06:55:28.676Z,49.63
2019-05-17T06:57:56.670Z,47.50
2019-05-17T07:00:24.044Z,49.43
2019-05-17T07:02:51.024Z,49.83
2019-05-17T07:05:20.117Z,49.63
2019-05-17T07:07:49.589Z,46.77
2019-05-17T07:10:16.180Z,49.27
2019-05-17T07:12:54.881Z,47.57
2019-05-17T07:15:11.674Z,47.30
2019-05-17T07:17:40.073Z,47.40
2019-05-17T07:20:10.231Z,47.07
2019-05-17T07:22:35.992Z,45.43
2019-05-17T07:25:05.327Z,43.77
2019-05-17T07:27:41.256Z,45.77
2019-05-17T07:30:00.704Z,49.20
2019-05-17T07:32:29.648Z,49.07
2019-05-17T07:34:55.767Z,45.07
2019-05-17T07:37:22.592Z,47.73
2019-05-17T07:39:58.616Z,49.70
2019-05-17T07:42:19.554Z,47.83
2019-05-17T07:45:10.087Z,52.07
2019-05-17T07:47:36.671Z,49.80
2019-05-17T07:50:05.231Z,50.90
2019-05-17T07:52:31.910Z,50.33
2019-05-17T07:55:02.401Z,50.03
2019-05-17T07:57:26.997Z,50.33
2019-05-17T07:59:54.764Z,47.70
2019-05-17T08:02:21.604Z,50.40
2019-05-17T08:04:50.170Z,47.40
2019-05-17T08:07:19.523Z,47.77
2019-05-17T08:09:46.058Z,46.37
2019-05-17T08:12:12.771Z,46.57
2019-05-17T08:14:40.079Z,47.40
2019-05-17T08:17:06.966Z,48.43
2019-05-17T08:19:37.133Z,46.57
2019-05-17T08:22:03.865Z,49.67
2019-05-17T08:24:30.617Z,48.03
2019-05-17T08:26:59.667Z,48.90
2019-05-17T08:29:25.795Z,45.77
2019-05-17T08:31:53.083Z,46.70
2019-05-17T08:34:21.947Z,42.30
2019-05-17T08:36:49.847Z,47.00
2019-05-17T08:39:19.716Z,43.10
2019-05-17T08:41:49.769Z,40.73
2019-05-17T08:44:16.287Z,40.70
2019-05-17T08:46:43.105Z,39.47
2019-05-17T08:49:11.257Z,41.60
2019-05-17T08:51:39.714Z,41.83
2019-05-17T08:54:20.047Z,40.97
2019-05-17T08:56:46.801Z,42.40
2019-05-17T08:59:13.648Z,39.27
2019-05-17T09:01:41.868Z,43.33
2019-05-17T09:04:09.284Z,42.37
2019-05-17T09:06:36.535Z,40.93
2019-05-17T09:09:05.137Z,44.23
2019-05-17T09:11:31.912Z,44.93
2019-05-17T09:14:01.934Z,41.97
2019-05-17T09:16:27.162Z,41.67
2019-05-17T09:18:53.841Z,42.83
2019-05-17T09:21:21.926Z,44.03
2019-05-17T09:23:50.356Z,43.13
2019-05-17T09:26:20.041Z,46.27
2019-05-17T09:28:49.820Z,48.13
2019-05-17T09:31:15.883Z,44.43
2019-05-17T09:33:42.491Z,45.53
2019-05-17T09:36:10.156Z,41.07
2019-05-17T09:38:36.962Z,42.97
2019-05-17T09:41:05.017Z,36.50
2019-05-17T09:43:31.759Z,30.37
2019-05-17T09:46:01.253Z,31.63
2019-05-17T09:48:27.386Z,32.63
2019-05-17T09:50:54.090Z,33.27
2019-05-17T09:53:20.765Z,34.10
2019-05-17T09:55:49.632Z,34.10
2019-05-17T09:58:16.306Z,32.37
2019-05-17T10:00:42.997Z,33.30
2019-05-17T10:03:10.066Z,35.27
2019-05-17T10:05:37.050Z,34.30
2019-05-17T10:08:03.872Z,37.50
2019-05-17T10:10:30.506Z,34.13
2019-05-17T10:12:57.115Z,35.17
2019-05-17T10:15:24.195Z,35.13
2019-05-17T10:17:50.967Z,37.23
2019-05-17T10:20:19.821Z,37.13
2019-05-17T10:22:46.244Z,35.87
2019-05-17T10:25:13.247Z,32.97
2019-05-17T10:27:40.640Z,35.90
2019-05-17T10:30:10.339Z,36.07
2019-05-17T10:32:40.805Z,35.47
2019-05-17T10:35:06.966Z,33.00
2019-05-17T10:37:33.599Z,37.20
2019-05-17T10:40:00.430Z,34.40
2019-05-17T10:42:27.285Z,36.40
2019-05-17T10:44:54.787Z,36.50
2019-05-17T10:47:21.810Z,34.20
2019-05-17T10:49:49.666Z,35.33
2019-05-17T10:52:16.386Z,33.07
2019-05-17T10:54:43.127Z,33.80
2019-05-17T10:57:10.422Z,34.33
2019-05-17T10:59:37.625Z,32.07
2019-05-17T11:02:04.389Z,33.60
2019-05-17T11:04:30.998Z,34.33
2019-05-17T11:06:59.589Z,33.57
2019-05-17T11:09:26.489Z,30.87
2019-05-17T11:11:53.153Z,31.67
2019-05-17T11:14:19.817Z,32.67
2019-05-17T11:16:46.455Z,35.70
2019-05-17T11:19:13.169Z,33.97
2019-05-17T11:21:39.932Z,33.70
2019-05-17T11:24:09.685Z,32.93
2019-05-17T11:26:50.248Z,31.17
2019-05-17T11:29:16.942Z,31.63
2019-05-17T11:31:43.613Z,32.00
2019-05-17T11:34:10.219Z,33.37
2019-05-17T11:36:36.882Z,29.90
2019-05-17T11:39:05.310Z,30.73
2019-05-17T11:41:32.016Z,30.33
2019-05-17T11:43:59.767Z,30.80
2019-05-17T11:46:35.812Z,28.90
2019-05-17T11:48:54.986Z,29.87
2019-05-17T11:51:21.719Z,27.80
2019-05-17T11:53:48.406Z,27.27
2019-05-17T11:56:15.013Z,26.13
2019-05-17T11:58:41.644Z,27.23
2019-05-17T12:01:08.604Z,25.47
2019-05-17T12:03:35.222Z,25.33
2019-05-17T12:06:02.056Z,23.73
2019-05-17T12:08:28.828Z,23.13
2019-05-17T12:10:55.794Z,25.63
2019-05-17T12:13:22.627Z,22.73
2019-05-17T12:15:49.337Z,23.00
2019-05-17T12:18:17.920Z,24.43
2019-05-17T12:20:44.579Z,24.90
2019-05-17T12:23:11.541Z,21.40
2019-05-17T12:25:40.180Z,20.53
2019-05-17T12:28:06.842Z,22.27
2019-05-17T12:30:33.881Z,20.97
2019-05-17T12:33:00.608Z,23.33
2019-05-17T12:35:27.387Z,22.83
2019-05-17T12:37:54.134Z,22.20
2019-05-17T12:40:21.118Z,24.03
2019-05-17T12:42:49.746Z,22.20
2019-05-17T12:45:16.590Z,23.10
2019-05-17T12:47:43.280Z,22.33
2019-05-17T12:50:10.294Z,21.53
2019-05-17T12:52:37.100Z,23.67
2019-05-17T12:55:07.263Z,22.43
2019-05-17T12:57:36.011Z,22.53
2019-05-17T13:00:05.082Z,21.37
2019-05-17T13:02:31.822Z,22.77
2019-05-17T13:04:58.819Z,23.00
2019-05-17T13:07:25.406Z,22.53
2019-05-17T13:09:53.360Z,22.60
2019-05-17T13:12:20.114Z,23.83
2019-05-17T13:14:46.734Z,24.13
2019-05-17T13:17:13.580Z,25.90
2019-05-17T13:19:40.326Z,25.20
2019-05-17T13:22:07.145Z,24.73
2019-05-17T13:24:33.915Z,29.33
2019-05-17T13:27:00.548Z,26.53
2019-05-17T13:29:30.115Z,27.80
2019-05-17T13:31:56.849Z,30.07
2019-05-17T13:34:23.522Z,29.30
2019-05-17T13:36:50.288Z,30.17
2019-05-17T13:39:16.927Z,30.77
2019-05-17T13:41:43.574Z,29.57
2019-05-17T13:44:10.324Z,31.90
2019-05-17T13:46:40.300Z,30.00
2019-05-17T13:49:06.973Z,29.43
2019-05-17T13:51:34.076Z,29.53
2019-05-17T13:54:00.768Z,29.03
2019-05-17T13:56:27.452Z,30.97
2019-05-17T13:58:54.091Z,29.43
2019-05-17T14:01:29.065Z,30.57
2019-05-17T14:03:55.886Z,31.10
2019-05-17T14:06:22.510Z,29.27
2019-05-17T14:08:49.346Z,28.90
2019-05-17T14:11:16.135Z,29.83
2019-05-17T14:13:42.913Z,29.20
2019-05-17T14:16:09.541Z,29.80
2019-05-17T14:18:36.350Z,32.77
2019-05-17T14:21:03.276Z,30.70
2019-05-17T14:23:30.198Z,29.67
2019-05-17T14:25:56.860Z,28.50
2019-05-17T14:28:23.779Z,30.67
2019-05-17T14:30:50.400Z,31.70
2019-05-17T14:33:18.570Z,30.37
2019-05-17T14:35:45.341Z,31.13
2019-05-17T14:38:12.181Z,30.00
2019-05-17T14:41:04.991Z,33.17
2019-05-17T14:43:07.386Z,31.60
2019-05-17T14:45:34.112Z,31.17
2019-05-17T14:48:01.127Z,31.60
2019-05-17T14:50:27.779Z,31.00
2019-05-17T14:52:54.385Z,30.93
2019-05-17T14:55:21.069Z,30.27
2019-05-17T14:57:48.284Z,32.23
2019-05-17T15:00:15.070Z,32.90
2019-05-17T15:02:41.825Z,31.47
2019-05-17T15:05:09.171Z,32.60
2019-05-17T15:07:36.081Z,31.40
2019-05-17T15:10:06.131Z,32.00
2019-05-17T15:12:32.768Z,30.00
2019-05-17T15:14:59.615Z,31.73
2019-05-17T15:17:26.532Z,32.20
2019-05-17T15:19:53.700Z,30.93
2019-05-17T15:22:22.203Z,30.23
2019-05-17T15:24:49.243Z,28.80
2019-05-17T15:27:15.982Z,29.20
2019-05-17T15:29:42.625Z,35.87
2019-05-17T15:32:09.243Z,30.13
2019-05-17T15:34:35.979Z,31.53
2019-05-17T15:37:03.030Z,30.30
2019-05-17T15:39:29.743Z,30.57
2019-05-17T15:41:56.419Z,31.43
2019-05-17T15:44:26.855Z,30.73
2019-05-17T15:46:52.143Z,31.83
2019-05-17T15:49:18.836Z,30.43
2019-05-17T15:51:45.539Z,33.17
2019-05-17T15:54:12.177Z,33.03
2019-05-17T15:56:38.819Z,32.33
2019-05-17T15:59:05.746Z,36.30
2019-05-17T16:01:32.411Z,38.67
2019-05-17T16:03:59.172Z,32.70
2019-05-17T16:06:26.142Z,32.67
2019-05-17T16:08:52.799Z,33.33
2019-05-17T16:11:20.779Z,34.00
2019-05-17T16:13:47.527Z,33.20
2019-05-17T16:16:14.374Z,30.27
2019-05-17T16:18:41.093Z,35.10
2019-05-17T16:21:08.085Z,33.07
2019-05-17T16:23:34.737Z,33.03
2019-05-17T16:26:01.441Z,34.80
2019-05-17T16:28:28.339Z,38.53
2019-05-17T16:30:55.029Z,33.33
2019-05-17T16:33:21.793Z,33.37
2019-05-17T16:35:48.515Z,35.67
2019-05-17T16:38:15.272Z,31.97
2019-05-17T16:40:42.197Z,32.37
2019-05-17T16:43:17.790Z,31.57
2019-05-17T16:45:37.482Z,31.67
2019-05-17T16:48:05.037Z,30.87
2019-05-17T16:50:31.669Z,29.03
2019-05-17T16:53:06.098Z,32.67
2019-05-17T16:55:27.832Z,28.90
2019-05-17T16:57:55.701Z,29.83
2019-05-17T17:00:29.180Z,27.50
2019-05-17T17:02:56.114Z,32.10
2019-05-17T17:05:22.744Z,29.53
2019-05-17T17:07:49.742Z,31.23
2019-05-17T17:10:16.411Z,31.13
2019-05-17T17:12:43.173Z,31.93
2019-05-17T17:15:10.528Z,30.23
2019-05-17T17:17:39.113Z,28.60
2019-05-17T17:20:06.350Z,30.33
2019-05-17T17:22:32.979Z,26.93
2019-05-17T17:24:59.829Z,26.50
2019-05-17T17:27:26.543Z,25.03
2019-05-17T17:29:53.276Z,27.27
2019-05-17T17:32:21.778Z,26.87
2019-05-17T17:34:48.589Z,26.40
2019-05-17T17:37:15.327Z,25.47
2019-05-17T17:39:41.971Z,27.87
2019-05-17T17:42:08.743Z,28.00
2019-05-17T17:44:35.817Z,25.57
2019-05-17T17:47:02.774Z,28.13
2019-05-17T17:49:29.460Z,27.67
2019-05-17T17:51:56.185Z,24.00
2019-05-17T17:54:23.239Z,26.43
2019-05-17T17:56:49.873Z,28.33
2019-05-17T17:59:16.497Z,26.33
2019-05-17T18:01:43.236Z,25.10
2019-05-17T18:04:12.016Z,27.20
2019-05-17T18:06:38.662Z,26.23
2019-05-17T18:09:18.365Z,25.87
2019-05-17T18:11:51.520Z,26.23
2019-05-17T18:14:18.395Z,25.37
2019-05-17T18:16:45.168Z,24.20
2019-05-17T18:19:11.983Z,25.07
2019-05-17T18:21:38.724Z,25.27
2019-05-17T18:24:05.579Z,26.07
2019-05-17T18:26:33.492Z,25.40
2019-05-17T18:29:00.578Z,24.47
2019-05-17T18:31:27.350Z,26.00
2019-05-17T18:33:54.226Z,24.10
2019-05-17T18:36:20.896Z,25.13
2019-05-17T18:38:51.296Z,24.37
2019-05-17T18:41:19.040Z,24.00
2019-05-17T18:43:46.120Z,24.70
2019-05-17T18:46:14.232Z,24.00
2019-05-17T18:48:41.564Z,22.77
2019-05-17T18:51:08.603Z,24.80
2019-05-17T18:53:35.424Z,23.43
2019-05-17T18:56:02.404Z,23.93
2019-05-17T18:58:29.107Z,23.57
2019-05-17T19:00:55.837Z,23.53
2019-05-17T19:03:22.490Z,24.70
2019-05-17T19:05:49.279Z,25.30
2019-05-17T19:08:15.974Z,22.67
2019-05-17T19:10:42.798Z,23.37
2019-05-17T19:13:09.561Z,24.73
2019-05-17T19:15:36.709Z,23.80
2019-05-17T19:18:03.485Z,24.33
2019-05-17T19:20:30.328Z,25.90
2019-05-17T19:22:57.706Z,23.53
2019-05-17T19:25:24.442Z,26.17
2019-05-17T19:27:51.156Z,25.93
2019-05-17T19:30:18.464Z,25.83
2019-05-17T19:32:45.162Z,25.23
2019-05-17T19:35:12.038Z,24.03
2019-05-17T19:37:38.799Z,23.13
2019-05-17T19:40:06.564Z,23.87
2019-05-17T19:42:33.586Z,24.73
2019-05-17T19:45:00.394Z,24.90
2019-05-17T19:47:28.574Z,24.43
2019-05-17T19:49:55.315Z,25.07
2019-05-17T19:52:22.135Z,27.10
2019-05-17T19:54:49.016Z,23.27
2019-05-17T19:57:15.916Z,25.93
2019-05-17T19:59:42.746Z,28.27
2019-05-17T20:02:10.460Z,28.63
2019-05-17T20:04:37.452Z,29.03
2019-05-17T20:07:04.235Z,25.93
2019-05-17T20:09:30.864Z,27.40
2019-05-17T20:11:57.646Z,27.33
2019-05-17T20:14:26.281Z,26.33
2019-05-17T20:16:53.014Z,27.27
2019-05-17T20:19:19.752Z,27.67
2019-05-17T20:21:46.554Z,26.83
2019-05-17T20:24:13.603Z,25.23
2019-05-17T20:26:40.438Z,26.60
2019-05-17T20:29:07.134Z,27.10
2019-05-17T20:31:36.160Z,26.70
2019-05-17T20:34:03.182Z,27.07
2019-05-17T20:36:30.102Z,25.33
2019-05-17T20:38:56.804Z,26.50
2019-05-17T20:41:23.596Z,25.80
2019-05-17T20:43:50.317Z,27.13
2019-05-17T20:46:16.975Z,26.33
2019-05-17T20:48:44.174Z,26.07
2019-05-17T20:51:10.853Z,27.93
2019-05-17T20:53:37.522Z,26.13
2019-05-17T20:56:04.571Z,27.30
2019-05-17T20:58:31.347Z,28.63
2019-05-17T21:00:58.018Z,28.17
2019-05-17T21:03:24.783Z,30.20
2019-05-17T21:05:52.617Z,27.30
2019-05-17T21:08:19.257Z,27.23
2019-05-17T21:10:45.903Z,27.40
2019-05-17T21:13:12.631Z,27.50
2019-05-17T21:15:47.407Z,27.23
2019-05-17T21:18:08.032Z,27.60
2019-05-17T21:20:34.863Z,27.20
2019-05-17T21:23:01.654Z,27.60
2019-05-17T21:25:28.410Z,26.60
2019-05-17T21:27:55.062Z,27.83
2019-05-17T21:30:28.963Z,28.00
2019-05-17T21:32:55.847Z,27.67
2019-05-17T21:35:22.604Z,28.30
2019-05-17T21:37:49.551Z,27.60
2019-05-17T21:40:16.557Z,25.80
2019-05-17T21:42:43.275Z,28.03
2019-05-17T21:45:10.308Z,27.13
2019-05-17T21:47:37.168Z,27.60
2019-05-17T21:50:03.997Z,26.93
2019-05-17T21:52:30.540Z,29.07
2019-05-17T21:54:57.178Z,27.80
2019-05-17T21:57:23.965Z,26.47
2019-05-17T21:59:50.629Z,29.07
2019-05-17T22:02:17.444Z,29.63
2019-05-17T22:04:44.075Z,28.10
2019-05-17T22:07:11.044Z,29.33
2019-05-17T22:09:37.667Z,29.40
2019-05-17T22:12:06.429Z,28.23
2019-05-17T22:14:33.156Z,31.07
2019-05-17T22:17:15.349Z,30.23
2019-05-17T22:19:41.887Z,30.43
2019-05-17T22:22:09.658Z,31.90
2019-05-17T22:24:36.316Z,33.33
2019-05-17T22:27:03.154Z,31.97
2019-05-17T22:29:29.928Z,32.50
2019-05-17T22:31:56.571Z,32.47
2019-05-17T22:34:23.203Z,31.07
2019-05-17T22:36:49.832Z,32.17
2019-05-17T22:39:16.482Z,32.93
2019-05-17T22:41:43.235Z,35.30
2019-05-17T22:44:09.994Z,33.60
2019-05-17T22:46:36.803Z,34.13
2019-05-17T22:49:03.433Z,34.93
2019-05-17T22:51:31.338Z,35.07
2019-05-17T22:53:57.872Z,32.67
2019-05-17T22:56:24.526Z,34.20
2019-05-17T22:58:52.298Z,34.73
2019-05-17T23:01:18.883Z,35.33
2019-05-17T23:03:45.593Z,35.60
2019-05-17T23:06:12.270Z,34.33
2019-05-17T23:08:38.937Z,35.13
2019-05-17T23:11:06.054Z,33.97
2019-05-17T23:13:35.033Z,34.23
2019-05-17T23:16:03.855Z,33.10
2019-05-17T23:18:32.352Z,34.10
2019-05-17T23:20:59.075Z,35.03
2019-05-17T23:23:25.697Z,32.57
2019-05-17T23:25:52.510Z,35.27
2019-05-17T23:28:19.269Z,34.80
2019-05-17T23:30:45.900Z,33.33
2019-05-17T23:33:12.649Z,34.60
2019-05-17T23:35:39.489Z,35.93
2019-05-17T23:38:06.178Z,34.53
2019-05-17T23:40:32.812Z,35.57
2019-05-17T23:42:59.432Z,36.53
2019-05-17T23:45:26.028Z,36.67
2019-05-17T23:47:56.781Z,34.73
2019-05-17T23:50:23.409Z,35.23
2019-05-17T23:52:50.243Z,35.27
2019-05-17T23:55:17.206Z,35.23
2019-05-17T23:57:43.969Z,35.23
